Florida AWOS List, Phone Numbers

USA |  
| Search AWOS

Rocky Mountain States: Montana | Wyoming | Colorado | New Mexico

Complete weather reports: Florida

Legend: KFNL = METAR available Follow your local AWOS on AV Mobile = METAR available on AV Mobile
Station Florida Location Frequency Phone
KAQQICAO ID KAQQ Apalachicola, Apalachicola
KAAFFAA ID AAF, ASOS, KAAF 022053Z AUTO 18009KT 10SM CLR 28/23 A2995 Follow KAAF on AV Mobile APALACHICOLA MUNICIPAL AIRPORT 119.925 850-653-8271
KNAEICAO ID KNAE Astor, Bombing Range Detachment Astor
KAVOFAA ID AVO, AWOS-3 AVON PARK 118.725 863-453-4223
KAGRFAA ID AGR Avon Park Gunnery Range
KBOWFAA ID BOW, AWOS-3, KBOW 022050Z 14007KT 10SM BKN055 32/18 A2995 Follow KBOW on AV Mobile Bartow Municipal 123.775 863-533-9004
F95FAA ID F95, AWOS-AV, KANQ 022155Z AUTO 01004KT 10SM SCT010 SCT022 BKN035 09/04 A2999 RMK Follow  on AV Mobile BLOUNTSTOWN 119.350 850-674-1347
KBCTFAA ID BCT, AWOS-3, KBCT 022047Z 14013G18KT 10SM SCT020 29/23 A2998 Follow KBCT on AV Mobile Boca Raton, Boca Raton Airport 121.125 561-391-2696
K1J0FAA ID 1J0, K1J0 021958Z AUTO 21009KT 10SM FEW037 28/19 A2996 RMK AO2 SLPNO T02830194 Follow K1J0 on AV Mobile TRI COUNTY AIRPORT
KBKVFAA ID BKV, ASOS, KBKV 022053Z AUTO 28011KT 10SM FEW100 28/22 A2996 RMK AO2 LTG DSNT N AND NE RAE23 SLP144 P0000 60000 T02780217 56019 Follow KBKV on AV Mobile BROOKSVILLE HERNANDO CO AIRPORT 134.725 352-799-5881
K1J4ICAO ID K1J4 Cape San Blas Coast Guard Station
KNZCICAO ID KNZC Cecil, Naval Air Station
KCLWFAA ID CLW, AWOS-3P, KCLW 022055Z AUTO 25010KT 10SM CLR 28/21 A2996 RMK AO2 Follow KCLW on AV Mobile CLEARWATER 119.225 727-449-2184
2ISFAA ID 2IS, AWOS-3, KANQ 022155Z AUTO 01004KT 10SM SCT010 SCT022 BKN035 09/04 A2999 RMK Follow  on AV Mobile CLEWISTON 124.175 863-983-7020
KX53ICAO ID KX53 Clewiston
KCOFFAA ID COF, KCOF 021458Z AUTO 15015KT 10SM CLR 29/22 A3006 RMK AO2 SLP184 T02870223 52007 $ Follow KCOF on AV Mobile Cocoa / Patrick Air Force Base
KXMRFAA ID XMR, KXMR 021458Z AUTO 18013KT 10SM CLR 27/22 A3005 RMK AO2 SLP179 T02710219 50006 $ Follow KXMR on AV Mobile Cocoa Beach, Cape Canaveral Air Force Station Skid Strip
KCEWFAA ID CEW, ASOS, KCEW 022053Z AUTO 19008KT 10SM SCT030 SCT037 28/19 A2995 Follow KCEW on AV Mobile CRESTVIEW SIKES AIRPORT 119.275 850-682-1237
KEGIFAA ID EGI, KEGI 021916Z 19012KT 10SM BKN022 BKN150 OVC180 27/21 A2998 RMK AO2A $ Follow KEGI on AV Mobile Duke Field / Eglin Auxiliary
KCTYFAA ID CTY, KCTY 022053Z AUTO 22011KT 31/19 A2995 Follow KCTY on AV Mobile CROSS CITY AIRPORT
KCGCFAA ID CGC, AWOS-3, KCGC 022055Z AUTO 26011G15KT 10SM BKN026 A2996 RMK AO2 Follow KCGC on AV Mobile CRYSTAL RIVER 118.325 352-563-6600
KDABFAA ID DAB, ASOS, KDAB 022053Z 12008G18KT 090V170 10SM FEW055TCU SCT075 SCT250 28/21 A2996 Follow KDAB on AV Mobile DAYTONA BEACH INTERNATIONAL 386-253-7469
54JFAA ID 54J, AWOS-3P, KANQ 022155Z AUTO 01004KT 10SM SCT010 SCT022 BKN035 09/04 A2999 RMK Follow  on AV Mobile DEFUNIAK SPRINGS 118.725 850-892-0147
KDEDFAA ID DED, AWOS-3, KDED 022055Z AUTO 14006KT 33/16 A2995 RMK AO1 Follow KDED on AV Mobile DELAND 119.575 386-740-5811
KDTSFAA ID DTS, ASOS, KDTS 022053Z AUTO 16007KT 130V190 10SM CLR 28/24 A2995 RMK AO2 SLP142 T02780239 58022 TSNO Follow KDTS on AV Mobile DESTIN-FT WALTON BEACH AIRPORT 133.925 850-654-7128
KX91ICAO ID KX91 Egmont Key Coast Guard Station
KFHBFAA ID FHB, AWOS-3, KFHB 022055Z AUTO 14014G18KT 10SM CLR 27/22 A2995 RMK AO1 Follow KFHB on AV Mobile FERNANDINA BEACH 118.075 904-277-7323
KFXEFAA ID FXE, ASOS, KFXE 022053Z 11016G20KT 10SM SCT024 29/21 A2997 Follow KFXE on AV Mobile FORT LAUDERDALE EXECUTIVE 954-772-2537
KFLLFAA ID FLL, ASOS, KFLL 022053Z 13015KT 10SM SCT026 28/22 A2997 Follow KFLL on AV Mobile FORT LAUDERDALE/HOLLYWOOD 954-359-7857
KFMYFAA ID FMY, ASOS, KFMY 022053Z 23007KT 10SM SCT055 SCT070 BKN090 29/20 A2994 RMK AO2 SLP140 T02940200 56019 Follow KFMY on AV Mobile FORT MYERS PAGE FIELD 239-936-2318
KRSWFAA ID RSW, ASOS, KRSW 022053Z AUTO 26008KT 10SM FEW065 OVC100 28/22 A2995 Follow KRSW on AV Mobile FORT MYERS SW FL INTERNATIONAL AIRPORT 239-561-0966
KX82ICAO ID KX82 Fort Pierce Coast Guard Station
KFPRFAA ID FPR, ASOS, KFPR 022053Z 13017G25KT 10SM CLR 28/22 A2997 Follow KFPR on AV Mobile FORT PIERCE ST LUCIE 772-489-4281
KX86ICAO ID KX86 Fowey Rocks Coast Guard Station
KX89ICAO ID KX89 Ft. Myers Beach Coast Guard Station
KGNVFAA ID GNV, ASOS, KGNV 022053Z 31005KT 10SM FEW055 31/18 A2994 Follow KGNV on AV Mobile GAINESVILLE REGIONAL AIRPORT 352-335-8672
KHWOFAA ID HWO, ASOS, KHWO 022053Z 14011KT 10SM FEW026 30/21 A2998 RMK AO2 SLP152 T03000211 58017 Follow KHWO on AV Mobile HOLLYWOOD NORTH PERRY AIRPORT 954-983-5904
X51FAA ID X51, AWOS-3, KANQ 022155Z AUTO 01004KT 10SM SCT010 SCT022 BKN035 09/04 A2999 RMK Follow  on AV Mobile HOMESTEAD 118.375 (305) 247-2791
KHSTFAA ID HST, KHST 021458Z AUTO 10012KT 10SM BKN022 28/22 A3004 RMK AO2 SLP176 T02840223 50009 CHINO RWY24 Follow KHST on AV Mobile Homestead Air Force Base
KIMMFAA ID IMM, AWOS-3, KIMM 161355Z AUTO 10007KT FEW016 A3015 RMK A01 P000 Follow KIMM on AV Mobile IMMOKALEE 118.525 239-657-2038
KINFFAA ID INF, AWOS-3, KINF 022055Z AUTO 33005KT 10SM SCT048 SCT065 BKN085 28/22 A2996 RMK AO2 LTG DSNT SE Follow KINF on AV Mobile INVERNESS 119.975 352-341-0264
KX84ICAO ID KX84 Islamorada Coast Guard Station
KHEGFAA ID HEG, AWOS-3 JACKSONVILLE 119.275 904-695-0334
KCRGFAA ID CRG, ASOS, KCRG 022053Z 14009KT 10SM CLR 28/21 A2995 RMK AO2 SLP141 T02830206 58024 Follow KCRG on AV Mobile JACKSONVILLE CRAIG MUN 904-646-4670
KJAXFAA ID JAX, ASOS, KJAX 022056Z 14012KT 10SM FEW040 SCT080 SCT150 BKN250 28/22 A2994 Follow KJAX on AV Mobile JACKSONVILLE INTERNATIONAL 904-741-4304
KNIPFAA ID NIP, KNIP 022053Z 12011KT 10SM SCT050 SCT200 BKN250 31/21 A2995 RMK AO2 WSHFT 2019 SLP136 T2 SET T03060211 58027 Follow KNIP on AV Mobile JACKSONVILLE NAVAL AIR STN
KVQQFAA ID VQQ, AWOS-3, KVQQ 022050Z VRB04KT 10SM BKN040 30/19 A2994 Follow KVQQ on AV Mobile Jacksonville, Cecil Field Airport 125.275 904-778-6934
KNENFAA ID NEN NOLF WHITEHOUSE FIELD, FL
KX80ICAO ID KX80 Jupiter Inlet Coast Guard Station
KEYWFAA ID EYW, ASOS, KEYW 022053Z 10012KT 10SM FEW018 28/24 A2994 Follow KEYW on AV Mobile KEY WEST INTERNATIONAL AIRPORT 119.65 305-292-4046
KNQXFAA ID NQX, KNQX 022053Z 11012KT 10SM FEW020 SCT045 29/23 A2994 RMK AO2 SLP138 T02940228 58019 $ Follow KNQX on AV Mobile KEY WEST NAVAL AIR STATION
K42JFAA ID 42J, AWOS-3, K42J 022055Z AUTO 00000KT 10SM CLR 32/12 A2994 RMK AO1 TSNO Follow K42J on AV Mobile KEYSTONE HEIGHTS 124.275 352-473-8273
KLCQFAA ID LCQ, AWOS-3, KLCQ 022055Z AUTO 31007KT 10SM SCT060 SCT070 BKN080 25/20 A2996 RMK AO2 LTG DSNT NW Follow KLCQ on AV Mobile LAKE CITY 120.675 386-754-9366
X07FAA ID X07, AWOS-3, KANQ 022155Z AUTO 01004KT 10SM SCT010 SCT022 BKN035 09/04 A2999 RMK Follow  on AV Mobile LAKE WALES 124.225 863-678-1334
KX81ICAO ID KX81 Lake Worth Inlet
KLALFAA ID LAL, AWOS-3PT, KLAL 022050Z 22006KT 10SM SCT065 32/19 A2994 Follow KLAL on AV Mobile Lakeland Regional 118.025 863-834-2030
KLEEFAA ID LEE, ASOS, KLEE 022053Z 13004KT 10SM CLR 32/17 A2994 RMK AO2 LTG DSNT W SLP138 T03220172 58026 Follow KLEE on AV Mobile LEESBURG REGIONAL AIRPORT 134.325 352-787-1565
K24JFAA ID 24J, AWOS-3, K24J 022055Z AUTO 25004KT VV005 30/23 A2997 RMK AO1 Follow K24J on AV Mobile LIVE OAK 118.225 386-362-1731
KX88ICAO ID KX88 Marathon Coast Guard Station
KMTHFAA ID MTH, ASOS, KMTH 022053Z AUTO 10008G15KT 080V140 10SM FEW019 SCT027 31/24 A2995 RMK AO2 SLP143 T03060239 56016 Follow KMTH on AV Mobile MARATHON AIRPORT 135.525 305-743-8373
KMKYFAA ID MKY, AWOS-3, KMKY 022055Z AUTO 18010KT 10SM CLR 31/19 A2995 RMK AO1 57020 Follow KMKY on AV Mobile MARCO ISLAND 120.075 239-394-8187
KMAIFAA ID MAI, ASOS, KMAI 022103Z AUTO 26003KT 3SM TS BR BKN027 BKN040 OVC075 22/20 A2994 RMK AO1 LTG DSNT E AND SE P0003 T02220200 Follow KMAI on AV Mobile MARIANNA MUNICIPAL AIRPORT 133.525 850-482-6082
KHRTFAA ID HRT, KHRT 021933Z AUTO 16009KT 10SM -RA FEW010 SCT130 BKN170 26/22 A2997 RMK AO2 RAB33 $ Follow KHRT on AV Mobile Hurlburt Field
KNRBFAA ID NRB, KNRB 022052Z 14012G21KT 10SM CLR 26/22 A2996 RMK AO2 SLP143 T2 SET T02560222 58025 Follow KNRB on AV Mobile MAYPORT NAVAL AIR FACILITY
KMLBFAA ID MLB, ASOS, KMLB 022053Z 12014KT 10SM SCT050 28/22 A2997 Follow KMLB on AV Mobile MELBOURNE INTERNATIONAL 321-723-7403
KCOIFAA ID COI, AWOS-3 Merritt Island, Merritt Island Airport 119.025 321-986-8864
KTNTFAA ID TNT, AWOS-3 MIAMI 119.075 (239) 695-9198
KX87ICAO ID KX87 Miami Beach Coast Guard Station
KAMXICAO ID KAMX Miami Nexrad
KTMBFAA ID TMB, ASOS, KTMB 022053Z 14010KT 100V160 10SM SCT028 31/22 A2996 Follow KTMB on AV Mobile KENDALL-TAMIAMI EXEC AIRPORT 305-235-1332
KMIAFAA ID MIA, ASOS, KMIA 022053Z 11014G19KT 10SM SCT029 29/22 A2997 Follow KMIA on AV Mobile MIAMI INTERNATIONAL AIRPORT 305-870-0235
KOPFFAA ID OPF, KOPF 022053Z 13015KT 10SM FEW030 30/21 A2997 Follow KOPF on AV Mobile MIAMI OPA LOCKA AIRPORT
KNFJFAA ID NFJ CHOCTAW, WHITING FIELD, NOLF
KNSEFAA ID NSE, KNSE 022056Z 17013KT 10SM SCT028 BKN060 BKN150 BKN250 26/23 A2994 RMK AO2 SLP122 T02610228 58022 $ Follow KNSE on AV Mobile MILTON WHITING FIELD (NORTH)
KNDZFAA ID NDZ, KNDZ 022056Z 19009KT 10SM FEW021 SCT070 BKN140 BKN200 27/23 A2993 RMK AO2 SLP122 T02720228 58024 $ Follow KNDZ on AV Mobile MILTON WHITING FIELD (SOUTH)
KAPFFAA ID APF, ASOS, KAPF 022053Z 21010KT 10SM CLR 31/23 A2994 Follow KAPF on AV Mobile NAPLES MUNICIPAL AIRPORT 239-643-9886
KRRFICAO ID KRRF New Port Richey, Tampa Bay Executive Airport
KEVBFAA ID EVB, AWOS-3, KEVB 022047Z 13014G25KT 10SM SCT030 26/22 A2997 Follow KEVB on AV Mobile New Smyrna Beach, New Smyrna Beach Municipal Airport 124.625 386-409-4705
KOCFFAA ID OCF, AWOS-3, KOCF 022050Z 27007KT 10SM SCT060 32/18 A2995 Follow KOCF on AV Mobile Ocala, Ocala International Airport-Jim Taylor Field 128.125 352-237-8525
KOBEFAA ID OBE, AWOS-3, KOBE 022055Z AUTO 14007KT 10SM CLR 31/20 A2996 RMK AO2 Follow KOBE on AV Mobile Okeechobee County Airport 118.675 863-467-1148
KORLFAA ID ORL, ASOS, KORL 022053Z 21004KT 10SM FEW060 33/17 A2995 RMK AO2 SLP143 T03280167 58023 Follow KORL on AV Mobile ORLANDO EXECUTIVE AIRPORT 407-658-6753
KMCOFAA ID MCO, ASOS, KMCO 022053Z 18009KT 10SM FEW055CB SCT100 32/18 A2995 Follow KMCO on AV Mobile ORLANDO INTERNATIONAL AIRPORT 407-855-5235
KSFBFAA ID SFB, ASOS, KSFB 022053Z VRB03KT 10SM FEW070 32/16 A2994 Follow KSFB on AV Mobile ORLANDO SANFORD AIRPORT 407-321-9384
KISMFAA ID ISM, AWOS-3, KISM 022050Z 12008KT 10SM SCT070 32/19 A2995 Follow KISM on AV Mobile Orlando, Kissimmee Municipal Airport 128.775 407-847-0533
KOMNFAA ID OMN, AWOS-3, KOMN 022050Z 12011G16KT 10SM SCT046 28/22 A2996 Follow KOMN on AV Mobile Ormond Beach, Ormond Beach Municipal Airport 118.475 386-615-7084
K28JFAA ID 28J, AWOS-3, K28J 021915Z AUTO 00000KT 10SM SCT075 31/18 A2999 RMK AO2 TSNO Follow K28J on AV Mobile PALATKA 119.92 386-312-2212
KFINFAA ID FIN, AWOS-3, KFIN 022050Z 13012G20KT 10SM CLR 29/22 A2996 Follow KFIN on AV Mobile PALM COAST 128.325 386-437-7334
KECPFAA ID ECP, ASOS, KECP 022053Z 19012KT 10SM SCT029 28/21 A2994 Follow KECP on AV Mobile PANAMA CITY 119.975 850-235-7857
KPFNICAO ID KPFN, KPFN 030253Z VRB03KT 10SM FEW023 25/23 A2989 Follow KPFN on AV Mobile PANAMA CITY-BAY CTY INTERNATIONAL
KPAMFAA ID PAM, KPAM 021858Z 19012KT 10SM FEW025 BKN190 27/21 A3001 RMK AO2A SLP163 Follow KPAM on AV Mobile Tyndall Air Force Base
KPNSFAA ID PNS, ASOS, KPNS 022053Z 18013KT 10SM FEW020 27/21 A2994 Follow KPNS on AV Mobile PENSACOLA REGIONAL AIRPORT 850-436-4799
KNPAFAA ID NPA, KNPA 022056Z 18011KT 10SM FEW014 SCT030 BKN250 27/22 A2993 RMK SLP138 T02670222 58024 Follow KNPA on AV Mobile Pensacola, Naval Air Station
K40JFAA ID 40J, AWOS-3PT, K40J 022055Z AUTO 18009KT 10SM CLR 30/20 A2996 RMK AO2 T02950199 Follow K40J on AV Mobile PERRY-FOLEY AIRPORT 118.375 850-838-3526
FA54FAA ID FA54, Belfort CORAL CREEK
KPCMFAA ID PCM, AWOS-3, KPCM 022055Z AUTO 23011KT 10SM CLR 33/22 A2996 RMK AO2 Follow KPCM on AV Mobile Plant City, Plant City Municipal Airport 120.025 813-764-8259
KPMPFAA ID PMP, ASOS, KPMP 022053Z 13015KT 10SM FEW035 29/22 A2997 RMK AO2 SLP151 T02890217 58018 Follow KPMP on AV Mobile POMPANO BEACH AIRPARK 954-783-3720
K1J3ICAO ID K1J3 Ponce De Leon Inlet
KPGDFAA ID PGD, ASOS, KPGD 022053Z AUTO 26013KT 10SM FEW050 31/21 A2996 RMK AO2 SLP145 T03060211 56019 Follow KPGD on AV Mobile PUNTA GORDA CHARLOTTE COUNTY 135.675 941-639-0076
K2J9FAA ID 2J9, AWOS-3, K2J9 022055Z AUTO 10008KT 23/21 A2998 RMK AO1 P0036 Follow K2J9 on AV Mobile QUINCY 118.975 (850) 627-6264
K1J5ICAO ID K1J5 Santa Rosa Coast Guard Station
KSRQFAA ID SRQ, ASOS, KSRQ 022053Z AUTO 22010KT 10SM FEW080 29/22 A2994 Follow KSRQ on AV Mobile SARASOTA/BRADENTON INTERNATIONAL . 124.375 941-359-0117
KSEFFAA ID SEF, AWOS-3 SEBRING 119.475 863-655-6424
KSGJFAA ID SGJ, AWOS-3, KSGJ 022058Z 14016G21KT 10SM CLR 28/22 A2996 RMK AO2 SLP146 T02830217 58024 Follow KSGJ on AV Mobile St. Augustine, St. Augustine Airport 904-824-7084
KPIEFAA ID PIE, ASOS, KPIE 022053Z 21013KT 10SM CLR 29/21 A2996 Follow KPIE on AV Mobile ST PETERSBURG/CLEARWATER 727-531-3456
KSPGFAA ID SPG, ASOS, KSPG 022053Z 24013KT 10SM CLR 28/21 A2994 RMK AO2 SLP138 T02830206 56020 Follow KSPG on AV Mobile ST PETERSBURG WHITTED AIRPORT 118.875 727-821-4334
KSUAFAA ID SUA, AWOS-3, KSUA 022047Z 13016G22KT 7SM SKC 30/23 A2999 Follow KSUA on AV Mobile Stuart, Witham Field Airport 772-692-7399
KTLHFAA ID TLH, ASOS, KTLH 022053Z 17011KT 10SM FEW040 SCT060 SCT110 BKN250 31/20 A2993 Follow KTLH on AV Mobile TALLAHASSEE REGIONAL AIRPORT 850-576-3665
KTBWICAO ID KTBW Tampa Bay Area
KMCFFAA ID MCF, KMCF 021458Z AUTO 14009KT 10SM CLR 29/24 A3004 RMK AO2 SLP175 T02900238 $ Follow KMCF on AV Mobile Macdill Air Force Base, Fl.
KTPAFAA ID TPA, ASOS, KTPA 022053Z 24012KT 10SM FEW038 SCT220 30/21 A2996 Follow KTPA on AV Mobile TAMPA INTERNATIONAL AIRPORT 813-873-7228
KTPFFAA ID TPF, AWOS-3, KTPF 022055Z AUTO 23010G14KT 10SM CLR 32/22 A2996 RMK AO2 Follow KTPF on AV Mobile Tampa, Peter O Knight Airport 118.925 813-251-6824
KVDFFAA ID VDF, AWOS-3, KVDF 022055Z AUTO 22009KT 10SM CLR 32/20 A2995 RMK AO2 Follow KVDF on AV Mobile Tampa, Vandenberg Airport 121.125 813-630-0924
KVLGICAO ID KVLG The Villages
KVVGICAO ID KVVG, KVVG 022055Z AUTO 12007KT 10SM 33/17 A2983 RMK A01 Follow KVVG on AV Mobile The Villages
KX68ICAO ID KX68 Titusville, NASA Shuttle Landing Facility
KTIXFAA ID TIX, KTIX 022050Z 14017G25KT 7SM SCT030 29/22 A2998 Follow KTIX on AV Mobile Titusville
KX21FAA ID X21, AWOS-3 Titusville, Arthur Dunn Air Park 119.725 321-385-0383
KTTSFAA ID TTS, KTTS 021358Z AUTO 17007KT 10SM FEW019 BKN065 26/22 A3005 RMK AO2 SLP180 T02600217 $ Follow KTTS on AV Mobile Titusville, NASA Shuttle Landing Facility
KVPSFAA ID VPS, KVPS 021855Z 19009KT 10SM SCT015 BKN150 BKN180 27/23 A3000 RMK AO2A T02660225 $ Follow KVPS on AV Mobile Valparaiso / Eglin Air Force Base
KVNCFAA ID VNC, AWOS-3, KVNC 072115Z AUTO RMK AO2 Follow KVNC on AV Mobile VENICE 119.275
KX90ICAO ID KX90 Venice Long Range Navigation
KVRBFAA ID VRB, ASOS, KVRB 022053Z 13016KT 10SM FEW055 28/22 A2999 Follow KVRB on AV Mobile VERO BEACH MUNICIPAL AIRPORT 772-978-9535
F45FAA ID F45, AWOS-3, KANQ 022155Z AUTO 01004KT 10SM SCT010 SCT022 BKN035 09/04 A2999 RMK Follow  on AV Mobile WEST PALM BEACH 119.975 561-630-6932
KLNAFAA ID LNA, AWOS-3 WEST PALM BEACH 119.925 561-964-0308
KPBIFAA ID PBI, ASOS, KPBI 022053Z 13016KT 10SM SCT023 29/21 A2999 Follow KPBI on AV Mobile PALM BEACH INTERNATIONAL 123.75 561-683-2548
FD38FAA ID FD38, Belfort WELLINGTON AERO CLUB
KX60FAA ID X60, AWOS-3, KX60 022055Z AUTO 24007KT 10SM CLR 31/19 A2995 RMK AO1 TSNO Follow KX60 on AV Mobile WILLISTON 118.425 352-528-9949
KGIFFAA ID GIF, ASOS, KGIF 022053Z AUTO 14004KT 10SM FEW065 BKN100 32/18 A2995 RMK AO2 SLP140 T03220183 58024 TSNO Follow KGIF on AV Mobile WINTER HAVENS GILBERT AIRPORT 133.675 863-956-2097
KZPHFAA ID ZPH, ASOS, KZPH 022055Z AUTO 17005KT 10SM SCT090 32/16 A2994 RMK AO2 T03180156 Follow KZPH on AV Mobile ZEPHYRHILLS 118.975 813-780-0031

Click on the AV Mobile icon AV Mobile icon by any station to follow that AWOS feed on AirportView.net Mobile.

Leaders in ADS-B Avemco Insurance Company